Time;durP1;ratioP1;P1;durP2;ratioP2;P2;SDS_P1;SDS_P2;PMS_P1;PMS_P2;Temp;Humidity;BMP_temperature;BMP_pressure;BME280_temperature;BME280_humidity;BME280_pressure;Samples;Min_cycle;Max_cycle;Signal;HPM_P1;HPM_P2
2023/12/01 00:00:05;;;;;;;1.88;1.77;;;;;;;14.34;nan;98996.06;7395948;19;20416;-57
2023/12/01 00:02:32;;;;;;;1.58;1.48;;;;;;;13.94;nan;98999.66;7398470;19;20011;-57
2023/12/01 00:04:58;;;;;;;3.90;2.25;;;;;;;13.69;nan;98996.75;7398718;19;20014;-57
2023/12/01 00:07:24;;;;;;;3.03;2.30;;;;;;;11.64;nan;99007.47;7399699;19;20436;-57
2023/12/01 00:09:52;;;;;;;4.70;3.65;;;;;;;11.77;nan;98999.41;7403079;19;20355;-57
2023/12/01 00:12:18;;;;;;;3.45;2.45;;;;;;;11.33;nan;99013.19;7399033;19;20082;-57
2023/12/01 00:14:44;;;;;;;0.85;0.85;;;;;;;12.70;nan;98997.88;7398654;19;20099;-57
2023/12/01 00:17:10;;;;;;;2.40;2.28;;;;;;;12.79;nan;99008.78;7398114;19;20465;-57
2023/12/01 00:19:37;;;;;;;1.38;1.30;;;;;;;12.98;nan;99009.00;7396997;19;20007;-57
2023/12/01 00:22:03;;;;;;;2.28;1.13;;;;;;;11.76;nan;99013.88;7399190;19;20015;-56
2023/12/01 00:24:30;;;;;;;1.30;1.27;;;;;;;10.61;nan;99019.13;7398780;19;20010;-56
2023/12/01 00:26:56;;;;;;;6.30;2.10;;;;;;;10.51;nan;99006.66;7399620;19;20462;-56
2023/12/01 00:29:22;;;;;;;0.88;0.82;;;;;;;11.12;nan;99014.63;7399300;19;20394;-56
2023/12/01 00:31:48;;;;;;;1.92;1.80;;;;;;;11.39;nan;99020.31;7399753;19;20034;-56
2023/12/01 00:34:15;;;;;;;16.33;3.63;;;;;;;11.65;nan;99016.59;7398920;19;20011;-56
2023/12/01 00:36:41;;;;;;;3.72;1.48;;;;;;;12.07;nan;99028.38;7398217;19;20487;-56
2023/12/01 00:39:07;;;;;;;5.53;2.80;;;;;;;12.08;nan;99023.56;7400064;19;20474;-56
2023/12/01 00:41:36;;;;;;;2.95;2.75;;;;;;;12.28;nan;99025.34;7397277;19;20037;-56
2023/12/01 00:44:03;;;;;;;4.22;1.85;;;;;;;11.90;nan;99033.16;7395813;19;20007;-56
2023/12/01 00:46:29;;;;;;;0.65;0.65;;;;;;;11.97;nan;99029.88;7397406;19;20446;-56
2023/12/01 00:48:56;;;;;;;1.30;1.17;;;;;;;13.48;nan;99023.59;7400080;19;20018;-56
2023/12/01 00:51:22;;;;;;;3.50;2.13;;;;;;;12.23;nan;99023.31;7397315;19;20007;-56
2023/12/01 00:53:48;;;;;;;2.95;2.75;;;;;;;13.21;nan;99027.25;7394705;19;20007;-56
2023/12/01 00:56:15;;;;;;;1.83;1.67;;;;;;;12.39;nan;99034.47;7395316;19;20015;-56
2023/12/01 00:58:42;;;;;;;1.58;1.48;;;;;;;11.97;nan;99038.25;7398180;19;20019;-56
2023/12/01 01:01:08;;;;;;;3.88;2.42;;;;;;;11.57;nan;99035.81;7394970;19;20018;-56
2023/12/01 01:03:35;;;;;;;1.55;1.45;;;;;;;11.69;nan;99029.06;7397462;19;20007;-56
2023/12/01 01:06:02;;;;;;;7.00;2.13;;;;;;;11.60;nan;99028.50;7396027;19;20021;-56
2023/12/01 01:08:30;;;;;;;0.60;0.60;;;;;;;11.63;nan;99033.06;7397443;19;20078;-56
2023/12/01 01:10:56;;;;;;;0.30;0.30;;;;;;;10.94;nan;99026.16;7401211;19;20128;-56
2023/12/01 01:13:25;;;;;;;1.05;1.05;;;;;;;11.03;nan;99026.72;7395584;19;20041;-56
2023/12/01 01:15:51;;;;;;;2.05;0.82;;;;;;;11.32;nan;99020.81;7395367;19;20010;-56
2023/12/01 01:18:17;;;;;;;0.50;0.50;;;;;;;11.16;nan;99026.28;7399455;19;20038;-57
2023/12/01 01:20:44;;;;;;;0.70;0.70;;;;;;;11.67;nan;99023.22;7393055;19;20070;-56
2023/12/01 01:23:10;;;;;;;1.23;1.13;;;;;;;10.87;nan;99030.16;7394386;19;20014;-56
2023/12/01 01:25:36;;;;;;;2.53;1.75;;;;;;;11.46;nan;99035.78;7396454;19;20077;-56
2023/12/01 01:28:02;;;;;;;1.85;1.25;;;;;;;11.64;nan;99032.56;7398219;19;20021;-56
2023/12/01 01:30:28;;;;;;;0.68;0.68;;;;;;;12.18;nan;99028.38;7394657;19;20010;-56
2023/12/01 01:32:54;;;;;;;0.75;0.75;;;;;;;12.71;nan;99021.75;7397015;19;20018;-56
2023/12/01 01:35:21;;;;;;;0.93;0.93;;;;;;;14.77;nan;99022.16;7395541;19;20010;-56
2023/12/01 01:37:47;;;;;;;0.55;0.55;;;;;;;15.70;nan;99018.84;7395736;19;20028;-57
2023/12/01 01:40:14;;;;;;;1.52;1.48;;;;;;;16.33;nan;99010.47;7395101;19;20070;-56
2023/12/01 01:42:41;;;;;;;5.50;1.85;;;;;;;13.22;nan;99014.78;7394116;19;20011;-56
2023/12/01 01:45:07;;;;;;;4.00;2.15;;;;;;;12.14;nan;99016.72;7396161;19;20002;-56
2023/12/01 01:47:34;;;;;;;1.10;1.10;;;;;;;13.62;nan;99010.56;7395931;19;20022;-56
2023/12/01 01:50:06;;;;;;;5.47;2.05;;;;;;;13.74;nan;99019.63;7395130;19;20034;-56
2023/12/01 01:52:33;;;;;;;1.65;0.95;;;;;;;14.47;nan;99010.22;7394558;19;20514;-56
2023/12/01 01:54:59;;;;;;;6.63;2.15;;;;;;;15.08;nan;99007.56;7395005;19;20462;-56
2023/12/01 01:57:26;;;;;;;2.22;1.15;;;;;;;15.49;nan;99012.22;7395689;19;20013;-56
2023/12/01 01:59:52;;;;;;;0.85;0.85;;;;;;;14.88;nan;99016.44;7393514;19;20426;-57
2023/12/01 02:02:18;;;;;;;0.98;0.98;;;;;;;17.32;nan;99015.63;7393565;19;20018;-56
2023/12/01 02:04:44;;;;;;;0.95;0.88;;;;;;;16.49;nan;99022.75;7394901;19;20018;-56
2023/12/01 02:07:26;;;;;;;4.28;1.33;;;;;;;14.70;nan;99030.41;7394587;19;20445;-57
2023/12/01 02:09:54;;;;;;;2.38;1.80;;;;;;;14.50;nan;99031.59;7398029;19;20043;-56
2023/12/01 02:12:20;;;;;;;8.43;2.70;;;;;;;14.16;nan;99027.50;7395163;19;20014;-55
2023/12/01 02:14:46;;;;;;;1.13;1.02;;;;;;;14.74;nan;99026.03;7394085;19;20028;-55
2023/12/01 02:17:12;;;;;;;6.22;1.30;;;;;;;14.53;nan;99018.59;7394260;19;20023;-55
2023/12/01 02:19:39;;;;;;;0.70;0.70;;;;;;;14.48;nan;99017.34;7391919;19;20021;-56
2023/12/01 02:22:07;;;;;;;1.20;1.20;;;;;;;14.61;nan;99014.69;7394113;19;20526;-56
2023/12/01 02:24:34;;;;;;;0.50;0.50;;;;;;;14.70;nan;99010.78;7394446;19;20022;-55
2023/12/01 02:27:01;;;;;;;0.70;0.70;;;;;;;14.61;nan;99011.13;7392656;19;20010;-55
2023/12/01 02:29:27;;;;;;;0.77;0.77;;;;;;;14.78;nan;99012.50;7397734;19;20380;-55
2023/12/01 02:31:53;;;;;;;0.47;0.47;;;;;;;14.91;nan;99021.03;7392421;19;20022;-55
2023/12/01 02:34:21;;;;;;;0.75;0.40;;;;;;;15.94;nan;99029.97;7394777;19;20014;-56
2023/12/01 02:36:47;;;;;;;1.48;1.02;;;;;;;16.14;nan;99026.63;7394849;19;20014;-55
2023/12/01 02:39:13;;;;;;;2.38;1.15;;;;;;;16.56;nan;99022.91;7398925;19;20034;-55
2023/12/01 02:41:39;;;;;;;0.80;0.80;;;;;;;15.65;nan;99030.91;7399461;19;20033;-55
2023/12/01 02:44:05;;;;;;;1.00;1.00;;;;;;;15.33;nan;99027.19;7395074;19;20017;-55
2023/12/01 02:46:32;;;;;;;0.47;0.47;;;;;;;15.20;nan;99028.59;7392269;19;20463;-55
2023/12/01 02:48:58;;;;;;;0.85;0.85;;;;;;;15.29;nan;99030.28;7395643;19;20010;-55
2023/12/01 02:51:24;;;;;;;1.85;0.65;;;;;;;15.14;nan;99029.94;7392961;19;20021;-56
2023/12/01 02:53:50;;;;;;;0.63;0.63;;;;;;;14.81;nan;99035.91;7391930;19;20015;-55
2023/12/01 02:56:18;;;;;;;1.15;1.05;;;;;;;14.78;nan;99037.72;7392818;19;20015;-55
2023/12/01 02:58:44;;;;;;;0.30;0.30;;;;;;;13.08;nan;99035.41;7394126;19;20007;-55
2023/12/01 03:01:10;;;;;;;0.50;0.50;;;;;;;13.07;nan;99036.69;7390981;19;20029;-55
2023/12/01 03:03:36;;;;;;;0.70;0.70;;;;;;;13.13;nan;99031.84;7392843;19;20089;-55
2023/12/01 03:06:03;;;;;;;0.70;0.70;;;;;;;13.30;nan;99029.75;7392938;19;20015;-55
2023/12/01 03:08:29;;;;;;;0.65;0.65;;;;;;;13.22;nan;99031.56;7392869;19;20018;-55
2023/12/01 03:10:56;;;;;;;0.70;0.70;;;;;;;13.11;nan;99033.63;7395537;19;20066;-55
2023/12/01 03:13:23;;;;;;;2.53;1.55;;;;;;;13.11;nan;99031.59;7392502;19;20031;-55
2023/12/01 03:15:49;;;;;;;0.77;0.77;;;;;;;13.13;nan;99034.63;7392396;19;20021;-55
2023/12/01 03:18:15;;;;;;;1.33;1.33;;;;;;;12.53;nan;99035.47;7395912;19;20018;-55
2023/12/01 03:20:42;;;;;;;1.23;1.23;;;;;;;11.88;nan;99032.91;7396077;19;20074;-55
2023/12/01 03:23:08;;;;;;;1.45;1.35;;;;;;;11.65;nan;99030.53;7399364;19;20364;-55
2023/12/01 03:25:35;;;;;;;5.38;1.85;;;;;;;11.18;nan;99044.03;7399833;19;20090;-55
2023/12/01 03:28:01;;;;;;;1.25;1.25;;;;;;;11.09;nan;99040.69;7399893;19;20010;-55
2023/12/01 03:30:27;;;;;;;0.40;0.40;;;;;;;17.76;nan;99022.41;7397721;19;20505;-55
2023/12/01 03:32:54;;;;;;;0.82;0.82;;;;;;;12.59;nan;99027.84;7397370;19;20014;-54
2023/12/01 03:35:22;;;;;;;1.60;1.55;;;;;;;11.74;nan;99033.88;7398374;19;20450;-55
2023/12/01 03:37:49;;;;;;;0.95;0.95;;;;;;;11.22;nan;99038.97;7400404;19;20015;-55
2023/12/01 03:40:16;;;;;;;1.23;1.23;;;;;;;10.41;nan;99030.38;7399632;19;20014;-55
2023/12/01 03:42:43;;;;;;;1.50;1.48;;;;;;;10.03;nan;99041.16;7398794;19;20073;-55
2023/12/01 03:45:13;;;;;;;0.60;0.60;;;;;;;10.16;nan;99033.19;7398019;19;20463;-54
2023/12/01 03:47:41;;;;;;;3.65;1.52;;;;;;;10.01;nan;99036.06;7399469;19;20014;-55
2023/12/01 03:50:14;;;;;;;0.80;0.80;;;;;;;9.38;nan;99037.16;7398958;19;20506;-54
2023/12/01 03:52:42;;;;;;;1.02;1.02;;;;;;;9.57;nan;99032.84;7397283;19;20047;-54
2023/12/01 03:55:09;;;;;;;0.52;0.52;;;;;;;9.32;nan;99033.53;7397624;19;20340;-55
2023/12/01 03:57:37;;;;;;;1.50;1.27;;;;;;;9.65;nan;99039.50;7399890;19;20015;-54
2023/12/01 04:00:13;;;;;;;0.88;0.85;;;;;;;9.45;nan;99036.72;7398572;19;20079;-55
2023/12/01 04:02:41;;;;;;;2.92;2.05;;;;;;;9.24;nan;99043.56;7397405;19;20006;-54
2023/12/01 04:05:08;;;;;;;0.82;0.82;;;;;;;9.18;nan;99041.47;7397364;19;20347;-54
2023/12/01 04:07:35;;;;;;;0.80;0.80;;;;;;;9.32;nan;99041.88;7399334;19;20025;-54
2023/12/01 04:10:10;;;;;;;0.50;0.50;;;;;;;9.38;nan;99031.59;7402646;19;20027;-54
2023/12/01 04:12:46;;;;;;;1.45;1.35;;;;;;;9.50;nan;99033.25;7397468;19;20558;-55
2023/12/01 04:15:15;;;;;;;2.05;0.98;;;;;;;8.97;nan;99036.38;7396726;19;20057;-54
2023/12/01 04:17:42;;;;;;;0.40;0.40;;;;;;;8.95;nan;99034.09;7398145;19;20329;-54
2023/12/01 04:20:20;;;;;;;0.50;0.50;;;;;;;10.38;nan;99034.16;7395949;19;20015;-54
2023/12/01 04:22:59;;;;;;;0.30;0.30;;;;;;;10.29;nan;99033.56;7397439;19;20022;-54
2023/12/01 04:25:26;;;;;;;3.67;2.22;;;;;;;9.58;nan;99039.91;7396826;19;20014;-54
2023/12/01 04:27:53;;;;;;;1.13;1.13;;;;;;;9.34;nan;99042.94;7399457;19;20007;-54
2023/12/01 04:30:20;;;;;;;1.40;1.30;;;;;;;8.93;nan;99047.69;7397632;19;20467;-55
2023/12/01 04:32:53;;;;;;;0.40;0.40;;;;;;;9.26;nan;99046.59;7397239;19;20017;-54
2023/12/01 04:35:20;;;;;;;0.85;0.85;;;;;;;9.58;nan;99039.91;7396082;19;20029;-54
2023/12/01 04:37:46;;;;;;;2.22;1.10;;;;;;;9.89;nan;99045.56;7399062;19;20018;-54
2023/12/01 04:40:15;;;;;;;0.80;0.80;;;;;;;9.70;nan;99047.13;7398521;19;20010;-54
2023/12/01 04:42:47;;;;;;;1.70;1.63;;;;;;;8.88;nan;99051.16;7397615;19;20459;-54
2023/12/01 04:45:14;;;;;;;;;;;;;;;10.90;nan;99045.13;7397940;19;20010;-54
2023/12/01 04:47:41;;;;;;;0.77;0.77;;;;;;;11.63;nan;99044.22;7397667;19;19915;-54
2023/12/01 04:50:12;;;;;;;0.40;0.40;;;;;;;11.13;nan;99046.81;7396420;19;20038;-54
2023/12/01 04:52:46;;;;;;;;;;;;;;;10.14;nan;99049.63;7396114;19;20006;-54
2023/12/01 04:55:14;;;;;;;0.60;0.60;;;;;;;10.25;nan;99046.94;7397209;19;19922;-54
2023/12/01 04:57:42;;;;;;;0.70;0.70;;;;;;;10.53;nan;99040.34;7397102;19;20022;-54
2023/12/01 05:00:25;;;;;;;19.48;1.63;;;;;;;9.30;nan;99045.16;7395150;19;20015;-54
2023/12/01 05:03:00;;;;;;;0.90;0.90;;;;;;;8.95;nan;99045.19;7396108;19;20066;-54
2023/12/01 05:05:28;;;;;;;1.42;1.33;;;;;;;9.24;nan;99046.34;7396999;19;20045;-54
2023/12/01 05:07:59;;;;;;;1.55;1.45;;;;;;;9.58;nan;99045.47;7397117;19;20017;-54
2023/12/01 05:10:28;;;;;;;0.35;0.35;;;;;;;9.04;nan;99058.19;7399348;19;20023;-54
2023/12/01 05:12:56;;;;;;;2.83;1.30;;;;;;;9.29;nan;99051.19;7396518;19;20017;-54
2023/12/01 05:15:24;;;;;;;0.98;0.90;;;;;;;9.55;nan;99052.03;7395739;19;20085;-54
2023/12/01 05:17:55;;;;;;;0.32;0.32;;;;;;;10.06;nan;99040.94;7396873;19;20344;-54
2023/12/01 05:20:27;;;;;;;4.38;1.45;;;;;;;10.21;nan;99047.16;7395280;19;20021;-54
2023/12/01 05:22:59;;;;;;;1.67;1.58;;;;;;;9.96;nan;99047.16;7396130;19;20010;-54
2023/12/01 05:25:27;;;;;;;1.00;0.90;;;;;;;9.84;nan;99057.38;7395890;19;20025;-54
2023/12/01 05:27:57;;;;;;;0.77;0.77;;;;;;;11.21;nan;99053.44;7396083;19;20010;-54
2023/12/01 05:30:26;;;;;;;1.05;0.90;;;;;;;9.96;nan;99053.47;7394444;19;20024;-54
2023/12/01 05:32:54;;;;;;;0.82;0.82;;;;;;;9.58;nan;99049.03;7395551;19;20074;-54
2023/12/01 05:35:20;;;;;;;0.40;0.40;;;;;;;9.88;nan;99053.13;7399490;19;20007;-54
2023/12/01 05:37:51;;;;;;;0.15;0.15;;;;;;;10.07;nan;99045.22;7395706;19;20010;-55
2023/12/01 05:40:37;;;;;;;1.60;1.17;;;;;;;9.58;nan;99051.03;7394269;19;20074;-54
2023/12/01 05:43:05;;;;;;;0.70;0.70;;;;;;;10.12;nan;99050.13;7395149;19;20550;-55
2023/12/01 05:45:35;;;;;;;0.80;0.80;;;;;;;10.04;nan;99042.66;7394658;19;20015;-55
2023/12/01 05:48:11;;;;;;;0.98;0.98;;;;;;;10.64;nan;99046.00;7396345;19;20046;-54
2023/12/01 05:50:41;;;;;;;0.80;0.80;;;;;;;10.96;nan;99048.75;7394914;19;20011;-54
2023/12/01 05:53:10;;;;;;;1.63;1.30;;;;;;;10.34;nan;99047.53;7394861;19;20013;-54
2023/12/01 05:55:37;;;;;;;0.90;0.90;;;;;;;9.59;nan;99058.91;7394339;19;20014;-54
2023/12/01 05:58:09;;;;;;;1.30;1.30;;;;;;;10.06;nan;99043.72;7396899;19;20010;-55
2023/12/01 06:00:36;;;;;;;52.17;3.15;;;;;;;10.25;nan;99053.25;7393230;19;20022;-55
2023/12/01 06:03:06;;;;;;;0.65;0.65;;;;;;;10.13;nan;99053.66;7394805;19;20034;-55
2023/12/01 06:05:34;;;;;;;0.82;0.82;;;;;;;10.12;nan;99060.47;7394547;19;20014;-55
2023/12/01 06:08:01;;;;;;;0.60;0.60;;;;;;;11.19;nan;99055.94;7395604;19;20080;-54
2023/12/01 06:10:29;;;;;;;2.28;1.30;;;;;;;11.30;nan;99040.03;7396138;19;20750;-55
2023/12/01 06:12:55;;;;;;;1.05;1.05;;;;;;;11.35;nan;99052.47;7393215;19;20011;-54
2023/12/01 06:15:24;;;;;;;1.83;1.67;;;;;;;11.25;nan;99053.94;7394013;19;20074;-55
2023/12/01 06:17:51;;;;;;;0.82;0.82;;;;;;;11.09;nan;99052.59;7395484;19;20014;-55
2023/12/01 06:20:22;;;;;;;0.80;0.80;;;;;;;11.06;nan;99052.84;7393085;19;20074;-55
2023/12/01 06:22:53;;;;;;;1.58;1.33;;;;;;;10.53;nan;99057.03;7393783;19;20022;-55
2023/12/01 06:25:21;;;;;;;2.17;1.75;;;;;;;10.50;nan;99062.84;7393712;19;20006;-55
2023/12/01 06:27:47;;;;;;;2.45;0.95;;;;;;;10.97;nan;99067.72;7394254;19;20514;-56
2023/12/01 06:30:15;;;;;;;1.45;1.45;;;;;;;12.45;nan;99063.16;7393690;19;20082;-55
2023/12/01 06:32:42;;;;;;;0.80;0.80;;;;;;;11.25;nan;99067.88;7395581;19;20078;-55
2023/12/01 06:35:10;;;;;;;2.10;1.63;;;;;;;11.10;nan;99073.63;7396806;19;20007;-56
2023/12/01 06:37:38;;;;;;;2.22;2.03;;;;;;;10.88;nan;99075.50;7395494;19;20019;-56
2023/12/01 06:40:11;;;;;;;1.35;1.35;;;;;;;11.37;nan;99072.25;7396476;19;20017;-56
2023/12/01 06:42:42;;;;;;;3.60;1.02;;;;;;;11.06;nan;99066.78;7396122;19;20011;-55
2023/12/01 06:45:12;;;;;;;6.60;4.10;;;;;;;12.01;nan;99068.69;7396055;19;20498;-56
2023/12/01 06:47:40;;;;;;;4.93;4.45;;;;;;;11.13;nan;99077.47;7395557;19;20267;-56
2023/12/01 06:50:09;;;;;;;8.57;3.72;;;;;;;11.87;nan;99078.78;7396074;19;20011;-55
2023/12/01 06:52:37;;;;;;;3.63;3.33;;;;;;;11.16;nan;99079.22;7393318;19;20008;-55
2023/12/01 06:55:07;;;;;;;9.57;5.03;;;;;;;10.35;nan;99079.66;7392268;19;20014;-55
2023/12/01 06:57:38;;;;;;;1.95;1.85;;;;;;;11.09;nan;99086.03;7391751;19;20082;-55
2023/12/01 07:00:09;;;;;;;2.17;2.08;;;;;;;11.02;nan;99080.19;7393612;19;20519;-56
2023/12/01 07:02:37;;;;;;;4.93;1.95;;;;;;;10.87;nan;99080.31;7395283;19;20010;-56
2023/12/01 07:05:19;;;;;;;1.35;1.35;;;;;;;11.10;nan;99086.81;7395149;19;20010;-56
2023/12/01 07:07:47;;;;;;;11.40;4.07;;;;;;;11.05;nan;99090.31;7394316;19;20014;-56
2023/12/01 07:10:16;;;;;;;15.20;2.67;;;;;;;10.92;nan;99092.75;7395275;19;20019;-56
2023/12/01 07:12:42;;;;;;;5.20;2.20;;;;;;;10.68;nan;99088.28;7395764;19;20167;-56
2023/12/01 07:15:11;;;;;;;3.75;2.00;;;;;;;10.65;nan;99103.19;7396948;19;20010;-56
2023/12/01 07:17:40;;;;;;;10.55;3.05;;;;;;;10.73;nan;99091.59;7394726;19;20007;-56
2023/12/01 07:20:13;;;;;;;0.98;0.98;;;;;;;12.26;nan;99100.47;7395659;19;20447;-56
2023/12/01 07:22:43;;;;;;;1.65;1.55;;;;;;;12.73;nan;99093.88;7395138;19;20045;-56
2023/12/01 07:25:21;;;;;;;1.17;1.17;;;;;;;12.92;nan;99100.47;7394626;19;20010;-56
2023/12/01 07:27:55;;;;;;;0.70;0.70;;;;;;;12.73;nan;99105.06;7394823;19;20459;-56
2023/12/01 07:30:21;;;;;;;1.35;1.35;;;;;;;12.86;nan;99102.53;7395120;19;20017;-56
2023/12/01 07:32:48;;;;;;;3.60;1.25;;;;;;;12.40;nan;99110.63;7394141;19;20007;-56
2023/12/01 07:35:15;;;;;;;3.92;3.17;;;;;;;12.23;nan;99112.63;7395163;19;20098;-56
2023/12/01 07:37:42;;;;;;;5.78;3.13;;;;;;;11.57;nan;99119.47;7394892;19;20095;-55
2023/12/01 07:40:13;;;;;;;2.05;1.45;;;;;;;10.55;nan;99124.13;7393172;19;20349;-55
2023/12/01 07:42:40;;;;;;;3.50;1.42;;;;;;;10.16;nan;99122.22;7395102;19;20027;-54
2023/12/01 07:45:07;;;;;;;0.50;0.50;;;;;;;11.22;nan;99121.81;7394930;19;20011;-55
2023/12/01 07:47:33;;;;;;;0.80;0.77;;;;;;;11.35;nan;99130.50;7393697;19;20526;-55
2023/12/01 07:50:02;;;;;;;1.45;1.38;;;;;;;12.04;nan;99131.88;7394761;19;20022;-55
2023/12/01 07:52:28;;;;;;;0.57;0.57;;;;;;;12.77;nan;99125.91;7394406;19;20081;-55
2023/12/01 07:54:54;;;;;;;0.98;0.90;;;;;;;14.02;nan;99132.19;7394195;19;20011;-55
2023/12/01 07:57:21;;;;;;;1.20;1.20;;;;;;;10.84;nan;99137.03;7394016;19;20007;-55
2023/12/01 07:59:47;;;;;;;0.90;0.90;;;;;;;10.27;nan;99139.81;7393704;19;20013;-55
2023/12/01 08:02:13;;;;;;;0.80;0.80;;;;;;;11.69;nan;99137.06;7394221;19;20018;-56
2023/12/01 08:04:40;;;;;;;1.25;1.17;;;;;;;11.62;nan;99138.28;7398204;19;20011;-56
2023/12/01 08:07:07;;;;;;;1.48;1.38;;;;;;;12.69;nan;99140.88;7402152;19;20018;-56
2023/12/01 08:09:33;;;;;;;0.75;0.75;;;;;;;12.94;nan;99137.06;7402141;19;20074;-56
2023/12/01 08:12:03;;;;;;;1.40;1.30;;;;;;;13.20;nan;99142.38;7402058;19;20018;-56
2023/12/01 08:14:29;;;;;;;1.38;1.00;;;;;;;12.91;nan;99144.41;7401478;19;20010;-55
2023/12/01 08:16:56;;;;;;;0.65;0.65;;;;;;;13.17;nan;99144.16;7402072;19;20018;-55
2023/12/01 08:19:22;;;;;;;1.90;1.80;;;;;;;13.28;nan;99144.16;7402187;19;20011;-55
2023/12/01 08:21:49;;;;;;;2.28;1.60;;;;;;;13.89;nan;99143.19;7398344;19;20029;-56
2023/12/01 08:24:17;;;;;;;2.30;1.70;;;;;;;13.19;nan;99136.03;7398587;19;20074;-56
2023/12/01 08:26:43;;;;;;;1.88;1.85;;;;;;;13.55;nan;99146.13;7396243;19;20112;-55
2023/12/01 08:29:09;;;;;;;5.25;2.35;;;;;;;13.40;nan;99142.88;7402143;19;20078;-55
2023/12/01 08:31:36;;;;;;;3.13;2.83;;;;;;;14.03;nan;99139.34;7397411;19;20081;-55
2023/12/01 08:34:02;;;;;;;1.17;1.17;;;;;;;13.12;nan;99153.34;7395885;19;20014;-56
2023/12/01 08:36:29;;;;;;;5.00;1.83;;;;;;;13.83;nan;99148.84;7394000;19;20007;-56
2023/12/01 08:38:55;;;;;;;3.15;2.25;;;;;;;14.00;nan;99151.56;7395365;19;20010;-51
2023/12/01 08:41:21;;;;;;;1.75;1.65;;;;;;;13.89;nan;99146.00;7397527;19;20015;-53
2023/12/01 08:43:47;;;;;;;0.68;0.68;;;;;;;14.22;nan;99149.41;7399062;19;20010;-57
2023/12/01 08:46:13;;;;;;;9.73;2.42;;;;;;;14.17;nan;99152.22;7398410;19;20006;-57
2023/12/01 08:48:39;;;;;;;2.53;1.95;;;;;;;14.08;nan;99158.13;7401787;19;20014;-57
2023/12/01 08:51:06;;;;;;;0.75;0.75;;;;;;;14.07;nan;99145.41;7398531;19;20338;-58
2023/12/01 08:53:32;;;;;;;1.17;1.08;;;;;;;13.35;nan;99159.66;7397010;19;20022;-57
2023/12/01 08:55:58;;;;;;;2.90;1.60;;;;;;;13.57;nan;99154.00;7395979;19;20496;-58
2023/12/01 08:58:24;;;;;;;7.50;2.42;;;;;;;13.99;nan;99150.78;7396147;19;20006;-58
2023/12/01 09:00:51;;;;;;;1.40;1.35;;;;;;;14.10;nan;99149.97;7391810;19;20351;-58
2023/12/01 09:03:17;;;;;;;1.42;1.33;;;;;;;13.41;nan;99149.22;7396661;19;20372;-60
2023/12/01 09:05:43;;;;;;;2.42;1.42;;;;;;;14.11;nan;99146.69;7397029;19;20066;-57
2023/12/01 09:08:11;;;;;;;0.50;0.50;;;;;;;12.92;nan;99162.72;7397239;19;20044;-57
2023/12/01 09:10:38;;;;;;;1.05;0.95;;;;;;;12.94;nan;99165.00;7399156;19;20076;-57
2023/12/01 09:13:04;;;;;;;2.35;1.70;;;;;;;12.83;nan;99167.78;7400554;19;20010;-56
2023/12/01 09:15:30;;;;;;;2.33;2.15;;;;;;;12.90;nan;99167.28;7394942;19;20085;-57
2023/12/01 09:17:57;;;;;;;4.38;2.08;;;;;;;14.41;nan;99158.00;7398143;19;20074;-57
2023/12/01 09:20:23;;;;;;;1.55;1.45;;;;;;;15.64;nan;99158.47;7395218;19;20030;-57
2023/12/01 09:22:49;;;;;;;2.35;2.15;;;;;;;15.07;nan;99157.47;7396014;19;20022;-58
2023/12/01 09:25:15;;;;;;;3.70;1.42;;;;;;;12.88;nan;99178.22;7396614;19;20419;-57
2023/12/01 09:27:41;;;;;;;5.72;2.85;;;;;;;12.46;nan;99176.38;7397251;19;20021;-58
2023/12/01 09:30:13;;;;;;;0.90;0.90;;;;;;;12.97;nan;99177.97;7396650;19;20348;-58
2023/12/01 09:32:40;;;;;;;1.17;1.17;;;;;;;13.41;nan;99168.78;7396265;19;20010;-57
2023/12/01 09:35:06;;;;;;;0.98;0.98;;;;;;;12.68;nan;99175.66;7396283;19;20010;-57
2023/12/01 09:37:32;;;;;;;5.38;1.48;;;;;;;14.56;nan;99166.81;7395772;19;20024;-57
2023/12/01 09:39:58;;;;;;;0.80;0.80;;;;;;;14.78;nan;99183.47;7394855;19;20014;-57
2023/12/01 09:42:25;;;;;;;0.70;0.70;;;;;;;13.55;nan;99184.53;7396304;19;20069;-57
2023/12/01 09:44:54;;;;;;;10.50;1.75;;;;;;;14.91;nan;99175.22;7396611;19;20007;-56
2023/12/01 09:47:21;;;;;;;1.00;1.00;;;;;;;16.77;nan;99183.34;7395184;19;20082;-57
2023/12/01 09:49:49;;;;;;;3.97;1.23;;;;;;;15.55;nan;99178.50;7395529;19;20027;-58
2023/12/01 09:52:15;;;;;;;1.10;1.10;;;;;;;13.80;nan;99185.47;7395562;19;20038;-58
2023/12/01 09:54:41;;;;;;;1.10;0.70;;;;;;;18.19;nan;99181.28;7394751;19;20014;-58
2023/12/01 09:57:08;;;;;;;0.60;0.60;;;;;;;22.11;nan;99179.00;7393228;19;20494;-57
2023/12/01 09:59:35;;;;;;;0.60;0.60;;;;;;;25.22;nan;99178.50;7394700;19;20007;-56
2023/12/01 10:02:03;;;;;;;2.38;0.95;;;;;;;25.71;nan;99177.31;7394784;19;20400;-58
2023/12/01 10:04:31;;;;;;;1.35;0.95;;;;;;;21.43;nan;99190.44;7394923;19;20022;-57
2023/12/01 10:06:57;;;;;;;2.28;1.23;;;;;;;21.05;nan;99184.00;7394441;19;20010;-57
2023/12/01 10:09:35;;;;;;;0.65;0.65;;;;;;;20.63;nan;99183.50;7398090;19;20022;-56
2023/12/01 10:12:12;;;;;;;2.33;1.23;;;;;;;20.82;nan;99198.06;7394437;19;20014;-56
2023/12/01 10:14:42;;;;;;;2.70;2.60;;;;;;;20.98;nan;99191.13;7394306;19;20022;-57
2023/12/01 10:17:10;;;;;;;18.17;3.08;;;;;;;21.08;nan;99194.19;7393335;19;20344;-57
2023/12/01 10:19:45;;;;;;;0.90;0.90;;;;;;;21.81;nan;99205.31;7393122;19;20017;-57
2023/12/01 10:22:13;;;;;;;1.05;1.05;;;;;;;22.16;nan;99202.81;7393951;19;20010;-57
2023/12/01 10:24:39;;;;;;;3.33;0.80;;;;;;;22.16;nan;99203.59;7394150;19;20463;-57
2023/12/01 10:27:08;;;;;;;3.40;2.28;;;;;;;22.07;nan;99207.00;7394592;19;20044;-57
2023/12/01 10:29:35;;;;;;;1.23;1.23;;;;;;;22.23;nan;99202.06;7391868;19;20010;-57
2023/12/01 10:32:12;;;;;;;2.05;1.15;;;;;;;22.55;nan;99204.94;7393439;19;20034;-57
2023/12/01 10:34:38;;;;;;;2.95;0.68;;;;;;;22.71;nan;99208.50;7394184;19;20031;-58
2023/12/01 10:37:05;;;;;;;0.40;0.40;;;;;;;22.88;nan;99209.38;7394214;19;20018;-58
2023/12/01 10:39:32;;;;;;;4.07;1.52;;;;;;;24.60;nan;99210.50;7397386;19;20011;-60
2023/12/01 10:41:59;;;;;;;4.97;1.80;;;;;;;27.03;nan;99203.63;7393771;19;20773;-57
2023/12/01 10:44:27;;;;;;;2.35;0.95;;;;;;;27.93;nan;99199.16;7393435;19;20015;-58
2023/12/01 10:46:55;;;;;;;0.50;0.50;;;;;;;28.96;nan;99204.63;7393283;19;20407;-57
2023/12/01 10:49:22;;;;;;;1.65;1.55;;;;;;;29.39;nan;99199.47;7397567;19;20461;-58
2023/12/01 10:51:52;;;;;;;0.80;0.80;;;;;;;25.85;nan;99203.31;7392616;19;20010;-57
2023/12/01 10:54:24;;;;;;;7.07;2.38;;;;;;;25.27;nan;99213.78;7392266;19;20010;-57
2023/12/01 10:57:16;;;;;;;0.70;0.70;;;;;;;25.48;nan;99217.63;7392346;19;20015;-57
2023/12/01 10:59:51;;;;;;;4.00;1.38;;;;;;;24.41;nan;99213.19;7393038;19;20084;-57
2023/12/01 11:02:18;;;;;;;0.98;0.98;;;;;;;24.37;nan;99201.47;7393248;19;20403;-57
2023/12/01 11:04:46;;;;;;;6.95;2.20;;;;;;;24.48;nan;99203.81;7393367;19;20010;-57
2023/12/01 11:07:33;;;;;;;4.53;1.90;;;;;;;24.37;nan;99210.78;7393027;19;20015;-57
2023/12/01 11:10:22;;;;;;;1.63;1.52;;;;;;;26.50;nan;99211.81;7397354;19;20014;-57
2023/12/01 11:13:16;;;;;;;2.47;2.15;;;;;;;26.23;nan;99200.53;7390517;19;20021;-56
2023/12/01 11:15:44;;;;;;;0.85;0.85;;;;;;;26.93;nan;99210.72;7392289;19;20015;-57
2023/12/01 11:18:13;;;;;;;1.00;0.75;;;;;;;29.65;nan;99195.34;7392436;19;20034;-57
2023/12/01 11:20:45;;;;;;;0.70;0.70;;;;;;;30.05;nan;99199.94;7390433;19;20021;-57
2023/12/01 11:23:11;;;;;;;5.82;1.15;;;;;;;30.48;nan;99194.56;7391958;19;20473;-58
2023/12/01 11:25:46;;;;;;;0.63;0.63;;;;;;;30.61;nan;99202.53;7392312;19;20098;-57
2023/12/01 11:28:38;;;;;;;2.45;1.40;;;;;;;30.82;nan;99199.41;7394913;19;20021;-57
2023/12/01 11:31:09;;;;;;;0.68;0.68;;;;;;;29.66;nan;99199.72;7394230;19;20019;-57
2023/12/01 11:33:57;;;;;;;0.32;0.32;;;;;;;29.65;nan;99186.75;7390406;19;20026;-58
2023/12/01 11:36:31;;;;;;;1.58;1.23;;;;;;;29.15;nan;99192.22;7392306;19;20495;-57
2023/12/01 11:41:39;;;;;;;23.48;1.63;;;;;;;28.60;nan;99190.81;7401156;19;20347;-57
2023/12/01 11:44:09;;;;;;;0.40;0.40;;;;;;;28.93;nan;99193.66;7397879;19;20034;-57
2023/12/01 11:46:38;;;;;;;0.93;0.80;;;;;;;28.95;nan;99188.06;7399512;19;20514;-57
2023/12/01 11:49:05;;;;;;;1.08;0.52;;;;;;;29.07;nan;99197.41;7402183;19;20018;-52
2023/12/01 11:51:31;;;;;;;0.32;0.32;;;;;;;29.60;nan;99190.00;7398857;19;20491;-51
2023/12/01 11:53:58;;;;;;;6.03;2.13;;;;;;;30.17;nan;99188.44;7400112;19;20018;-52
2023/12/01 11:56:26;;;;;;;0.20;0.20;;;;;;;30.44;nan;99185.72;7402960;19;20025;-52
2023/12/01 11:58:53;;;;;;;1.10;0.75;;;;;;;27.95;nan;99190.69;7401107;19;20568;-53